createdAt,value
2018-01-08T00:00:15.644Z,102914.01
2018-01-08T00:02:43.227Z,102919.12
2018-01-08T00:05:10.819Z,102918.34
2018-01-08T00:07:38.540Z,102918.69
2018-01-08T00:10:06.126Z,102910.98
2018-01-08T00:12:33.779Z,102921.59
2018-01-08T00:15:01.366Z,102919.08
2018-01-08T00:17:28.952Z,102923.27
2018-01-08T00:19:56.552Z,102918.24
2018-01-08T00:22:24.173Z,102919.41
2018-01-08T00:24:51.843Z,102918.94
2018-01-08T00:27:19.423Z,102921.50
2018-01-08T00:29:47.067Z,102922.75
2018-01-08T00:32:14.686Z,102913.73
2018-01-08T00:34:42.266Z,102916.72
2018-01-08T00:37:09.895Z,102911.12
2018-01-08T00:39:37.506Z,102909.48
2018-01-08T00:42:05.097Z,102911.98
2018-01-08T00:44:32.683Z,102910.25
2018-01-08T00:47:00.266Z,102917.09
2018-01-08T00:49:27.959Z,102918.28
2018-01-08T00:51:55.591Z,102921.27
2018-01-08T00:54:23.191Z,102916.17
2018-01-08T00:56:50.876Z,102915.72
2018-01-08T00:59:18.494Z,102913.20
2018-01-08T01:01:46.091Z,102914.45
2018-01-08T01:04:13.834Z,102921.16
2018-01-08T01:06:41.426Z,102914.01
2018-01-08T01:09:09.002Z,102914.38
2018-01-08T01:11:36.623Z,102916.91
2018-01-08T01:14:04.246Z,102904.06
2018-01-08T01:16:31.831Z,102905.39
2018-01-08T01:18:59.458Z,102909.59
2018-01-08T01:21:27.046Z,102910.03
2018-01-08T01:23:54.676Z,102902.91
2018-01-08T01:26:22.390Z,102900.73
2018-01-08T01:28:49.978Z,102892.23
2018-01-08T01:31:17.568Z,102902.83
2018-01-08T01:33:45.159Z,102899.84
2018-01-08T01:36:12.784Z,102903.58
2018-01-08T01:38:40.400Z,102909.65
2018-01-08T01:41:08.060Z,102902.73
2018-01-08T01:43:35.643Z,102898.84
2018-01-08T01:46:03.256Z,102895.84
2018-01-08T01:48:30.943Z,102891.13
2018-01-08T01:50:58.537Z,102894.91
2018-01-08T01:53:26.207Z,102893.69
2018-01-08T01:55:53.800Z,102886.51
2018-01-08T01:58:22.014Z,102896.23
2018-01-08T02:00:49.635Z,102900.95
2018-01-08T02:03:17.225Z,102894.85
2018-01-08T02:05:44.898Z,102895.75
2018-01-08T02:08:12.590Z,102898.75
2018-01-08T02:10:40.322Z,102910.23
2018-01-08T02:13:07.980Z,102908.17
2018-01-08T02:15:35.607Z,102906.80
2018-01-08T02:18:03.197Z,102902.98
2018-01-08T02:20:30.822Z,102900.47
2018-01-08T02:22:58.453Z,102901.17
2018-01-08T02:25:26.080Z,102905.50
2018-01-08T02:27:54.504Z,102899.00
2018-01-08T02:30:23.019Z,102908.80
2018-01-08T02:32:50.654Z,102904.58
2018-01-08T02:35:18.291Z,102905.30
2018-01-08T02:37:45.923Z,102889.95
2018-01-08T02:40:13.510Z,102899.70
2018-01-08T02:42:41.732Z,102895.78
2018-01-08T02:45:09.313Z,102893.25
2018-01-08T02:47:37.644Z,102895.02
2018-01-08T02:50:05.299Z,102889.00
2018-01-08T02:52:33.718Z,102882.15
2018-01-08T02:55:01.303Z,102886.77
2018-01-08T02:57:28.891Z,102885.50
2018-01-08T02:59:56.482Z,102879.48
2018-01-08T03:02:24.067Z,102883.25
2018-01-08T03:04:51.646Z,102879.91
2018-01-08T03:07:19.576Z,102886.37
2018-01-08T03:09:47.207Z,102883.22
2018-01-08T03:12:14.786Z,102885.36
2018-01-08T03:14:42.376Z,102897.69
2018-01-08T03:17:09.958Z,102895.19
2018-01-08T03:19:37.543Z,102901.09
2018-01-08T03:22:05.138Z,102906.31
2018-01-08T03:24:32.778Z,102903.22
2018-01-08T03:27:00.358Z,102906.63
2018-01-08T03:29:27.944Z,102910.73
2018-01-08T03:31:56.446Z,102913.38
2018-01-08T03:34:24.139Z,102914.30
2018-01-08T03:36:51.741Z,102918.39
2018-01-08T03:39:19.365Z,102912.48
2018-01-08T03:41:47.003Z,102909.84
2018-01-08T03:44:14.589Z,102911.93
2018-01-08T03:46:42.176Z,102913.21
2018-01-08T03:49:09.759Z,102914.75
2018-01-08T03:51:37.391Z,102916.95
2018-01-08T03:54:04.969Z,102914.83
2018-01-08T03:56:33.424Z,102909.66
2018-01-08T03:59:01.014Z,102911.84
2018-01-08T04:01:29.612Z,102907.91
2018-01-08T04:03:57.973Z,102911.34
2018-01-08T04:06:25.596Z,102903.59
2018-01-08T04:08:53.229Z,102899.73
2018-01-08T04:11:20.817Z,102903.08
2018-01-08T04:13:48.402Z,102905.52
2018-01-08T04:16:16.019Z,102896.17
2018-01-08T04:18:43.634Z,102903.35
2018-01-08T04:21:11.255Z,102893.95
2018-01-08T04:23:38.838Z,102904.27
2018-01-08T04:26:06.419Z,102899.62
2018-01-08T04:28:34.815Z,102905.44
2018-01-08T04:31:02.398Z,102910.12
2018-01-08T04:33:29.981Z,102917.83
2018-01-08T04:35:57.562Z,102912.77
2018-01-08T04:38:25.261Z,102914.10
2018-01-08T04:40:52.880Z,102920.81
2018-01-08T04:43:20.470Z,102908.92
2018-01-08T04:45:48.066Z,102912.31
2018-01-08T04:48:15.651Z,102917.51
2018-01-08T04:50:43.243Z,102924.67
2018-01-08T04:53:12.412Z,102925.87
2018-01-08T04:55:40.811Z,102933.59
2018-01-08T04:58:09.131Z,102940.85
2018-01-08T05:00:37.499Z,102946.00
2018-01-08T05:03:05.083Z,102948.91
2018-01-08T05:05:33.386Z,102942.88
2018-01-08T05:08:01.802Z,102941.13
2018-01-08T05:10:30.218Z,102942.04
2018-01-08T05:12:58.643Z,102936.92
2018-01-08T05:15:26.316Z,102946.75
2018-01-08T05:17:53.979Z,102950.28
2018-01-08T05:20:22.350Z,102954.98
2018-01-08T05:22:50.806Z,102952.00
2018-01-08T05:25:18.389Z,102964.38
2018-01-08T05:27:45.979Z,102972.03
2018-01-08T05:30:14.167Z,102971.10
2018-01-08T05:32:42.573Z,102970.67
2018-01-08T05:35:10.962Z,102967.25
2018-01-08T05:37:39.324Z,102967.27
2018-01-08T05:40:07.786Z,102966.72
2018-01-08T05:42:36.085Z,102974.12
2018-01-08T05:45:04.516Z,102971.03
2018-01-08T05:47:32.108Z,102965.52
2018-01-08T05:50:00.675Z,102968.48
2018-01-08T05:52:28.960Z,102970.88
2018-01-08T05:54:57.310Z,102974.28
2018-01-08T05:57:25.811Z,102978.39
2018-01-08T05:59:53.391Z,102978.95
2018-01-08T06:02:20.980Z,102976.38
2018-01-08T06:04:49.366Z,102978.02
2018-01-08T06:07:17.962Z,102974.39
2018-01-08T06:09:45.588Z,102976.35
2018-01-08T06:12:13.228Z,102975.03
2018-01-08T06:14:40.839Z,102974.66
2018-01-08T06:17:09.406Z,102987.80
2018-01-08T06:19:37.885Z,102977.72
2018-01-08T06:22:06.260Z,102986.94
2018-01-08T06:24:33.845Z,102982.37
2018-01-08T06:27:04.073Z,102986.50
2018-01-08T06:29:31.756Z,102995.74
2018-01-08T06:31:59.344Z,102989.80
2018-01-08T06:34:27.026Z,103003.09
2018-01-08T06:36:54.618Z,103009.66
2018-01-08T06:39:22.214Z,103010.57
2018-01-08T06:41:50.004Z,103014.45
2018-01-08T06:44:18.417Z,103012.84
2018-01-08T06:46:46.046Z,103008.47
2018-01-08T06:49:14.428Z,103009.77
2018-01-08T06:51:42.095Z,103008.80
2018-01-08T06:54:09.755Z,103005.02
2018-01-08T06:56:37.343Z,103002.87
2018-01-08T06:59:04.931Z,103005.09
2018-01-08T07:01:32.509Z,103010.41
2018-01-08T07:04:00.099Z,103006.57
2018-01-08T07:06:27.686Z,102998.19
2018-01-08T07:08:55.271Z,103004.33
2018-01-08T07:11:22.859Z,103000.05
2018-01-08T07:13:50.443Z,103007.75
2018-01-08T07:16:18.083Z,103009.53
2018-01-08T07:18:45.681Z,103005.91
2018-01-08T07:21:13.336Z,103001.04
2018-01-08T07:23:41.000Z,103003.14
2018-01-08T07:26:08.590Z,102995.48
2018-01-08T07:28:36.179Z,102995.22
2018-01-08T07:31:03.765Z,102998.84
2018-01-08T07:33:31.366Z,103000.45
2018-01-08T07:35:59.752Z,103005.79
2018-01-08T07:38:27.422Z,103007.98
2018-01-08T07:40:55.009Z,102998.21
2018-01-08T07:43:22.605Z,103000.30
2018-01-08T07:45:50.218Z,103001.12
2018-01-08T07:48:20.699Z,102997.25
2018-01-08T07:50:49.220Z,102993.73
2018-01-08T07:53:16.808Z,102995.92
2018-01-08T07:55:44.406Z,103001.50
2018-01-08T07:58:12.066Z,103009.65
2018-01-08T08:00:39.656Z,103012.27
2018-01-08T08:03:08.862Z,103006.09
2018-01-08T08:05:37.434Z,103019.86
2018-01-08T08:08:05.078Z,103019.42
2018-01-08T08:10:32.698Z,103014.41
2018-01-08T08:13:00.315Z,103014.45
2018-01-08T08:15:27.944Z,103020.94
2018-01-08T08:17:56.362Z,103014.64
2018-01-08T08:20:24.866Z,103016.40
2018-01-08T08:22:53.563Z,103027.05
2018-01-08T08:25:21.154Z,103031.84
2018-01-08T08:27:48.864Z,103030.17
2018-01-08T08:30:17.746Z,103025.49
2018-01-08T08:32:46.736Z,103022.95
2018-01-08T08:35:14.323Z,103030.27
2018-01-08T08:37:41.911Z,103013.24
2018-01-08T08:40:09.538Z,103004.98
2018-01-08T08:42:37.178Z,103009.63
2018-01-08T08:45:04.771Z,103002.20
2018-01-08T08:47:32.377Z,102993.31
2018-01-08T08:50:00.292Z,103000.23
2018-01-08T08:52:27.887Z,102998.64
2018-01-08T08:54:55.526Z,102996.20
2018-01-08T08:57:23.163Z,102998.84
2018-01-08T08:59:51.971Z,102994.34
2018-01-08T09:02:20.364Z,102993.50
2018-01-08T09:04:47.998Z,102992.41
2018-01-08T09:07:15.690Z,102988.33
2018-01-08T09:09:43.280Z,102991.40
2018-01-08T09:12:10.890Z,102991.09
2018-01-08T09:14:38.524Z,102998.36
2018-01-08T09:17:06.103Z,102995.94
2018-01-08T09:19:33.775Z,102998.53
2018-01-08T09:22:01.403Z,102999.55
2018-01-08T09:24:29.899Z,103004.33
2018-01-08T09:26:58.169Z,103011.73
2018-01-08T09:29:25.757Z,103012.73
2018-01-08T09:31:54.626Z,103016.56
2018-01-08T09:34:22.306Z,103010.31
2018-01-08T09:36:49.894Z,103007.86
2018-01-08T09:39:18.357Z,103005.90
2018-01-08T09:41:46.015Z,102997.02
2018-01-08T09:44:13.650Z,102995.75
2018-01-08T09:46:41.243Z,102993.71
2018-01-08T09:49:09.116Z,102996.38
2018-01-08T09:51:36.699Z,102991.34
2018-01-08T09:54:04.280Z,102987.53
2018-01-08T09:56:31.865Z,102975.59
2018-01-08T09:58:59.449Z,102968.76
2018-01-08T10:01:27.042Z,102976.16
2018-01-08T10:04:06.443Z,102974.55
2018-01-08T10:06:45.795Z,102976.69
2018-01-08T10:09:25.326Z,102969.97
2018-01-08T10:12:04.686Z,102966.96
2018-01-08T10:14:44.203Z,102967.84
2018-01-08T10:17:23.780Z,102974.40
2018-01-08T10:20:00.088Z,102977.09
2018-01-08T10:22:28.626Z,102967.73
2018-01-08T10:24:56.205Z,102960.85
2018-01-08T10:27:23.786Z,102961.00
2018-01-08T10:29:51.519Z,102955.02
2018-01-08T10:32:19.106Z,102958.95
2018-01-08T10:34:46.756Z,102953.37
2018-01-08T10:37:14.955Z,102951.70
2018-01-08T10:39:42.598Z,102950.41
2018-01-08T10:42:16.849Z,102945.69
2018-01-08T10:44:49.945Z,102951.77
2018-01-08T10:47:24.007Z,102941.92
2018-01-08T10:49:58.179Z,102948.34
2018-01-08T10:52:26.143Z,102945.39
2018-01-08T10:54:57.034Z,102943.23
2018-01-08T10:57:25.419Z,102935.52
2018-01-08T10:59:53.922Z,102942.40
2018-01-08T11:02:27.023Z,102927.80
2018-01-08T11:04:55.656Z,102923.52
2018-01-08T11:07:23.991Z,102921.78
2018-01-08T11:09:52.461Z,102929.95
2018-01-08T11:12:20.890Z,102924.80
2018-01-08T11:14:48.485Z,102923.06
2018-01-08T11:17:16.144Z,102920.91
2018-01-08T11:19:43.760Z,102923.52
2018-01-08T11:22:11.374Z,102918.34
2018-01-08T11:24:40.075Z,102915.33
2018-01-08T11:27:07.673Z,102902.83
2018-01-08T11:29:35.258Z,102904.09
2018-01-08T11:32:02.838Z,102898.94
2018-01-08T11:34:30.451Z,102893.32
2018-01-08T11:36:58.024Z,102887.75
2018-01-08T11:39:26.491Z,102877.33
2018-01-08T11:41:55.068Z,102881.15
2018-01-08T11:44:22.642Z,102892.35
2018-01-08T11:46:50.303Z,102892.81
2018-01-08T11:49:18.834Z,102897.05
2018-01-08T11:51:47.159Z,102893.22
2018-01-08T11:54:15.535Z,102894.96
2018-01-08T11:56:43.905Z,102888.85
2018-01-08T11:59:11.583Z,102889.31
2018-01-08T12:01:39.154Z,102888.40
2018-01-08T12:04:06.781Z,102887.14
2018-01-08T12:06:34.354Z,102891.80
2018-01-08T12:09:02.033Z,102887.11
2018-01-08T12:11:29.651Z,102888.80
2018-01-08T12:13:57.221Z,102883.62
2018-01-08T12:16:24.826Z,102887.59
2018-01-08T12:18:53.339Z,102882.47
2018-01-08T12:21:21.811Z,102881.52
2018-01-08T12:23:50.193Z,102878.60
2018-01-08T12:26:18.599Z,102870.31
2018-01-08T12:28:46.170Z,102874.67
2018-01-08T12:31:13.737Z,102873.39
2018-01-08T12:33:42.102Z,102867.41
2018-01-08T12:36:09.679Z,102863.16
2018-01-08T12:38:37.270Z,102865.70
2018-01-08T12:41:05.761Z,102856.70
2018-01-08T12:43:33.343Z,102859.73
2018-01-08T12:46:00.962Z,102861.72
2018-01-08T12:48:28.579Z,102862.32
2018-01-08T12:50:57.060Z,102864.08
2018-01-08T12:53:25.447Z,102866.22
2018-01-08T12:55:53.850Z,102856.78
2018-01-08T12:58:22.318Z,102856.34
2018-01-08T13:00:49.903Z,102851.62
2018-01-08T13:03:17.531Z,102844.25
2018-01-08T13:05:45.897Z,102853.28
2018-01-08T13:08:14.339Z,102848.14
2018-01-08T13:10:42.720Z,102851.17
2018-01-08T13:13:12.956Z,102848.13
2018-01-08T13:15:41.321Z,102859.77
2018-01-08T13:18:08.906Z,102858.57
2018-01-08T13:20:36.549Z,102853.86
2018-01-08T13:23:04.114Z,102850.86
2018-01-08T13:25:31.704Z,102851.25
2018-01-08T13:28:00.180Z,102842.72
2018-01-08T13:30:28.544Z,102843.58
2018-01-08T13:32:56.122Z,102841.00
2018-01-08T13:35:23.706Z,102846.18
2018-01-08T13:37:51.314Z,102855.19
2018-01-08T13:40:19.864Z,102845.75
2018-01-08T13:42:48.080Z,102847.45
2018-01-08T13:45:15.710Z,102844.04
2018-01-08T13:47:43.352Z,102847.47
2018-01-08T13:50:11.048Z,102844.90
2018-01-08T13:52:39.648Z,102846.16
2018-01-08T13:55:08.066Z,102851.73
2018-01-08T13:57:36.527Z,102851.70
2018-01-08T14:00:04.174Z,102862.84
2018-01-08T14:02:32.556Z,102861.09
2018-01-08T14:05:00.927Z,102864.53
2018-01-08T14:07:29.347Z,102861.08
2018-01-08T14:09:56.979Z,102861.89
2018-01-08T14:12:24.586Z,102864.48
2018-01-08T14:14:53.071Z,102865.33
2018-01-08T14:17:21.450Z,102870.03
2018-01-08T14:19:49.929Z,102866.58
2018-01-08T14:22:18.335Z,102867.86
2018-01-08T14:24:46.744Z,102861.05
2018-01-08T14:27:14.330Z,102863.58
2018-01-08T14:29:41.912Z,102877.25
2018-01-08T14:32:10.455Z,102864.84
2018-01-08T14:34:38.798Z,102876.77
2018-01-08T14:37:06.447Z,102870.74
2018-01-08T14:39:34.030Z,102878.47
2018-01-08T14:42:01.615Z,102875.03
2018-01-08T14:44:29.210Z,102879.73
2018-01-08T14:46:57.658Z,102872.45
2018-01-08T14:49:26.154Z,102880.55
2018-01-08T14:51:54.506Z,102879.69
2018-01-08T14:54:22.999Z,102886.08
2018-01-08T14:56:51.354Z,102883.91
2018-01-08T14:59:18.985Z,102878.31
2018-01-08T15:01:47.377Z,102882.95
2018-01-08T15:04:15.783Z,102888.52
2018-01-08T15:06:44.285Z,102896.18
2018-01-08T15:09:12.205Z,102890.14
2018-01-08T15:11:40.698Z,102898.67
2018-01-08T15:14:08.334Z,102896.56
2018-01-08T15:16:36.835Z,102894.35
2018-01-08T15:19:05.213Z,102895.22
2018-01-08T15:21:33.574Z,102893.50
2018-01-08T15:24:01.868Z,102895.20
2018-01-08T15:26:29.457Z,102887.03
2018-01-08T15:28:57.043Z,102899.34
2018-01-08T15:31:24.668Z,102886.95
2018-01-08T15:33:53.183Z,102886.45
2018-01-08T15:36:20.811Z,102889.12
2018-01-08T15:38:48.845Z,102889.06
2018-01-08T15:41:16.433Z,102878.75
2018-01-08T15:43:44.047Z,102881.34
2018-01-08T15:46:11.635Z,102884.27
2018-01-08T15:48:40.569Z,102880.00
2018-01-08T15:51:08.978Z,102889.75
2018-01-08T15:53:36.595Z,102879.45
2018-01-08T15:56:05.089Z,102886.70
2018-01-08T15:58:32.678Z,102884.03
2018-01-08T16:01:01.162Z,102885.75
2018-01-08T16:03:29.547Z,102877.61
2018-01-08T16:05:57.911Z,102875.44
2018-01-08T16:08:25.533Z,102878.87
2018-01-08T16:10:53.126Z,102875.89
2018-01-08T16:13:20.714Z,102886.07
2018-01-08T16:15:49.195Z,102887.30
2018-01-08T16:18:17.606Z,102877.42
2018-01-08T16:20:45.911Z,102884.66
2018-01-08T16:23:14.639Z,102882.12
2018-01-08T16:25:42.606Z,102879.58
2018-01-08T16:28:10.241Z,102879.98
2018-01-08T16:30:38.081Z,102878.25
2018-01-08T16:33:06.390Z,102882.16
2018-01-08T16:35:34.781Z,102887.58
2018-01-08T16:38:03.142Z,102885.90
2018-01-08T16:40:31.433Z,102884.16
2018-01-08T16:42:59.806Z,102881.09
2018-01-08T16:45:28.463Z,102881.54
2018-01-08T16:47:56.104Z,102880.36
2018-01-08T16:50:23.697Z,102875.11
2018-01-08T16:52:51.290Z,102873.38
2018-01-08T16:55:18.879Z,102872.54
2018-01-08T16:57:46.502Z,102870.81
2018-01-08T17:00:15.062Z,102869.89
2018-01-08T17:02:42.702Z,102862.18
2018-01-08T17:05:10.286Z,102862.33
2018-01-08T17:07:37.866Z,102865.16
2018-01-08T17:10:06.375Z,102860.09
2018-01-08T17:12:33.998Z,102861.34
2018-01-08T17:15:01.616Z,102859.58
2018-01-08T17:17:30.174Z,102855.72
2018-01-08T17:19:58.043Z,102855.23
2018-01-08T17:22:26.467Z,102858.23
2018-01-08T17:24:54.322Z,102860.64
2018-01-08T17:27:24.427Z,102847.79
2018-01-08T17:29:52.055Z,102849.16
2018-01-08T17:32:19.644Z,102855.52
2018-01-08T17:34:48.083Z,102853.49
2018-01-08T17:37:15.671Z,102854.30
2018-01-08T17:39:44.027Z,102852.47
2018-01-08T17:42:11.616Z,102852.88
2018-01-08T17:44:39.207Z,102855.84
2018-01-08T17:47:07.489Z,102851.58
2018-01-08T17:49:35.081Z,102859.63
2018-01-08T17:52:02.727Z,102852.38
2018-01-08T17:54:30.352Z,102853.19
2018-01-08T17:56:57.982Z,102849.31
2018-01-08T17:59:25.570Z,102852.33
2018-01-08T18:01:53.198Z,102859.94
2018-01-08T18:04:20.779Z,102855.67
2018-01-08T18:06:48.379Z,102862.02
2018-01-08T18:09:16.347Z,102862.43
2018-01-08T18:11:43.998Z,102857.76
2018-01-08T18:14:11.658Z,102860.72
2018-01-08T18:16:39.291Z,102861.92
2018-01-08T18:19:06.910Z,102870.60
2018-01-08T18:21:34.575Z,102877.69
2018-01-08T18:24:02.159Z,102873.84
2018-01-08T18:26:29.879Z,102863.17
2018-01-08T18:28:57.534Z,102868.91
2018-01-08T18:31:25.195Z,102858.16
2018-01-08T18:33:52.786Z,102857.24
2018-01-08T18:36:20.370Z,102858.94
2018-01-08T18:38:50.354Z,102865.77
2018-01-08T18:41:21.637Z,102860.99
2018-01-08T18:43:51.388Z,102860.11
2018-01-08T18:46:25.320Z,102864.42
2018-01-08T18:48:55.231Z,102857.91
2018-01-08T18:51:23.076Z,102853.62
2018-01-08T18:53:50.672Z,102852.03
2018-01-08T18:56:18.262Z,102849.05
2018-01-08T18:58:45.839Z,102845.20
2018-01-08T19:01:14.290Z,102848.20
2018-01-08T19:03:43.423Z,102842.53
2018-01-08T19:06:11.036Z,102843.85
2018-01-08T19:08:38.693Z,102840.94
2018-01-08T19:11:06.692Z,102839.09
2018-01-08T19:13:34.309Z,102831.97
2018-01-08T19:16:02.163Z,102828.88
2018-01-08T19:18:29.762Z,102820.36
2018-01-08T19:20:57.426Z,102809.28
2018-01-08T19:23:25.049Z,102808.35
2018-01-08T19:25:52.651Z,102799.83
2018-01-08T19:28:20.239Z,102797.28
2018-01-08T19:30:47.839Z,102799.95
2018-01-08T19:33:15.414Z,102799.38
2018-01-08T19:35:43.719Z,102802.39
2018-01-08T19:38:11.371Z,102791.65
2018-01-08T19:40:38.956Z,102801.91
2018-01-08T19:43:07.511Z,102796.28
2018-01-08T19:45:35.142Z,102791.52
2018-01-08T19:48:03.763Z,102797.53
2018-01-08T19:50:32.193Z,102797.39
2018-01-08T19:53:00.743Z,102793.02
2018-01-08T19:55:29.172Z,102801.03
2018-01-08T19:57:56.770Z,102795.94
2018-01-08T20:00:25.271Z,102801.51
2018-01-08T20:02:52.858Z,102805.73
2018-01-08T20:05:20.453Z,102806.94
2018-01-08T20:07:48.076Z,102812.61
2018-01-08T20:10:15.662Z,102806.15
2018-01-08T20:12:43.294Z,102796.55
2018-01-08T20:15:10.883Z,102801.14
2018-01-08T20:17:39.247Z,102800.23
2018-01-08T20:20:06.975Z,102801.41
2018-01-08T20:22:35.387Z,102798.80
2018-01-08T20:25:03.912Z,102791.19
2018-01-08T20:27:31.608Z,102801.55
2018-01-08T20:29:59.302Z,102800.34
2018-01-08T20:32:26.982Z,102795.38
2018-01-08T20:34:54.564Z,102792.23
2018-01-08T20:37:22.971Z,102784.48
2018-01-08T20:39:51.492Z,102790.42
2018-01-08T20:42:19.684Z,102798.89
2018-01-08T20:44:47.311Z,102805.65
2018-01-08T20:47:14.967Z,102801.91
2018-01-08T20:49:42.671Z,102796.80
2018-01-08T20:52:10.287Z,102794.65
2018-01-08T20:54:38.875Z,102791.64
2018-01-08T20:57:06.458Z,102791.95
2018-01-08T20:59:34.987Z,102798.05
2018-01-08T21:02:02.607Z,102790.38
2018-01-08T21:04:30.272Z,102789.61
2018-01-08T21:06:57.904Z,102791.66
2018-01-08T21:09:25.523Z,102792.49
2018-01-08T21:11:53.121Z,102786.50
2018-01-08T21:14:21.638Z,102785.02
2018-01-08T21:16:49.279Z,102775.21
2018-01-08T21:19:16.929Z,102762.94
2018-01-08T21:21:44.523Z,102763.83
2018-01-08T21:24:12.119Z,102755.25
2018-01-08T21:26:39.758Z,102758.70
2018-01-08T21:29:07.342Z,102751.56
2018-01-08T21:31:35.854Z,102745.59
2018-01-08T21:34:03.435Z,102746.08
2018-01-08T21:36:31.876Z,102750.26
2018-01-08T21:38:59.462Z,102751.11
2018-01-08T21:41:27.088Z,102750.26
2018-01-08T21:43:54.672Z,102744.31
2018-01-08T21:46:23.206Z,102743.50
2018-01-08T21:48:50.791Z,102741.37
2018-01-08T21:51:19.343Z,102739.79
2018-01-08T21:53:47.043Z,102733.84
2018-01-08T21:56:14.626Z,102737.66
2018-01-08T21:58:42.216Z,102739.41
2018-01-08T22:01:09.874Z,102735.09
2018-01-08T22:03:37.470Z,102734.25
2018-01-08T22:06:05.947Z,102733.05
2018-01-08T22:08:33.586Z,102725.78
2018-01-08T22:11:01.677Z,102726.64
2018-01-08T22:13:29.272Z,102724.47
2018-01-08T22:15:56.886Z,102718.85
2018-01-08T22:18:24.466Z,102706.92
2018-01-08T22:20:52.052Z,102701.80
2018-01-08T22:23:19.634Z,102700.96
2018-01-08T22:25:47.378Z,102696.75
2018-01-08T22:28:14.951Z,102687.64
2018-01-08T22:30:42.550Z,102678.70
2018-01-08T22:33:10.590Z,102678.25
2018-01-08T22:35:38.234Z,102676.97
2018-01-08T22:38:06.627Z,102685.13
2018-01-08T22:40:34.210Z,102671.02
2018-01-08T22:43:02.707Z,102668.48
2018-01-08T22:45:30.339Z,102665.48
2018-01-08T22:47:58.164Z,102661.20
2018-01-08T22:50:26.671Z,102663.38
2018-01-08T22:52:54.255Z,102653.52
2018-01-08T22:55:22.667Z,102652.28
2018-01-08T22:57:51.061Z,102638.27
2018-01-08T23:00:18.843Z,102642.92
2018-01-08T23:02:47.148Z,102646.33
2018-01-08T23:05:15.518Z,102648.42
2018-01-08T23:07:43.908Z,102644.16
2018-01-08T23:10:11.500Z,102630.87
2018-01-08T23:12:39.087Z,102638.12
2018-01-08T23:15:07.532Z,102642.83
2018-01-08T23:17:35.868Z,102635.95
2018-01-08T23:20:04.168Z,102629.49
2018-01-08T23:22:32.574Z,102626.56
2018-01-08T23:25:00.176Z,102610.41
2018-01-08T23:27:27.801Z,102594.61
2018-01-08T23:29:55.421Z,102593.25
2018-01-08T23:32:23.802Z,102597.17
2018-01-08T23:34:51.414Z,102592.03
2018-01-08T23:37:20.619Z,102580.48
2018-01-08T23:39:48.279Z,102581.34
2018-01-08T23:42:16.824Z,102574.50
2018-01-08T23:44:45.312Z,102567.68
2018-01-08T23:47:13.675Z,102567.25
2018-01-08T23:49:42.053Z,102563.80
2018-01-08T23:52:10.539Z,102554.34
2018-01-08T23:54:38.146Z,102561.22
2018-01-08T23:57:06.783Z,102557.74
2018-01-08T23:59:34.370Z,102556.07
